Airfield :







YOU CAN JOIN US ON...

 
LOGIN :

Register | Disclaimer

   EN    FR    IT 

 









Legend :    VFR   Marginal VFR   IFR   Intensive IFR   Very Intensive IFR
Visi :
Ceiling :
>= 8 km
>= 3000ft
5 to 8 km
1000 to 3000 ft
1500m to 5 km
500 to 1000 ft
800 to 1500m
200 to 500 ft
< 800m
< 200 ft
Symbols :   Thunderstorms  Fog  Heavy snow  Heavy precipitations  Wind > 20 kt







- Airport Elevation : 1166 ft


KMPV - Edward F Knapp State

CURRENT METAR :
  • 251251Z AUTO 03003KT 10SM SCT014 OVC029 06/02 A2998 RMK AO2 SLP160 T00560022

EXPIRED METARs :
  • 251236Z AUTO 33005KT 10SM FEW014 OVC030 06/02 A2997 RMK AO2 T00560022
  • 251211Z AUTO VRB04KT 10SM FEW009 OVC029 05/03 A2998 RMK AO2 T00500028
  • 251151Z AUTO 31004KT 10SM OVC027 05/03 A2997 RMK AO2 SLP159 60000 T00500028 10050 20028 53015
  • 251120Z AUTO 31004KT 10SM OVC029 04/03 A2996 RMK AO2 T00440028
  • 251051Z AUTO 32004KT 10SM OVC030 04/03 A2995 RMK AO2 SLP152 T00390028

TAF KMPV
Valid from the 25 at 12:00 until the 26 at 12:00 UTC


251131Z 2512/2612 VRB04KT P6SM OVC030
FM251500 VRB03KT P6SM BKN045
FM251800 VRB04KT P6SM FEW120
FM261000 15005KT P6SM VCSH BKN090
FM261100 15006KT 6SM -RA BR BKN090
KZBW FIR / North America



MET'MAP, your aeronautical weather chart ! - Copyright ORBIFLY December 2007 - Disclaimer

ORBIFLY MET'MAP TEAM :

Programming & Development : Alexandra Zaïnal
Concept & Development : Baudouin d'Aumeries
Co-Development & Prog : Marc-Olivier Méhu
Technical & hardware support : Manuel Goepfert

Contact : metmap@orbifly.com




SOURCES & CREDITS :

   NOAA